createdAt,value
2019-03-10T00:00:29.767Z,3.70
2019-03-10T00:02:32.667Z,2.60
2019-03-10T00:04:36.328Z,3.73
2019-03-10T00:06:39.225Z,3.60
2019-03-10T00:08:42.246Z,3.30
2019-03-10T00:10:46.419Z,4.23
2019-03-10T00:12:49.451Z,4.00
2019-03-10T00:14:52.889Z,3.70
2019-03-10T00:16:56.194Z,3.30
2019-03-10T00:18:59.089Z,3.20
2019-03-10T00:21:02.182Z,3.70
2019-03-10T00:23:05.066Z,3.17
2019-03-10T00:25:09.244Z,3.43
2019-03-10T00:27:12.252Z,3.87
2019-03-10T00:29:15.235Z,2.93
2019-03-10T00:31:18.144Z,4.20
2019-03-10T00:33:21.850Z,3.00
2019-03-10T00:35:26.226Z,3.73
2019-03-10T00:37:29.347Z,3.77
2019-03-10T00:39:33.811Z,4.30
2019-03-10T00:41:47.474Z,2.90
2019-03-10T00:44:02.123Z,4.10
2019-03-10T00:49:06.812Z,3.92
2019-03-10T00:51:34.262Z,3.83
2019-03-10T00:53:35.075Z,3.00
2019-03-10T00:55:38.727Z,3.90
2019-03-10T00:57:41.646Z,2.87
2019-03-10T00:59:44.603Z,3.30
2019-03-10T01:01:48.213Z,2.97
2019-03-10T01:03:51.100Z,3.73
2019-03-10T01:05:55.336Z,3.00
2019-03-10T01:07:58.984Z,2.93
2019-03-10T01:10:01.880Z,3.37
2019-03-10T01:12:04.908Z,2.80
2019-03-10T01:14:08.563Z,2.83
2019-03-10T01:16:11.572Z,4.10
2019-03-10T01:18:15.280Z,3.00
2019-03-10T01:20:19.381Z,2.67
2019-03-10T01:22:23.585Z,3.40
2019-03-10T01:24:26.595Z,3.40
2019-03-10T01:26:30.244Z,3.40
2019-03-10T01:28:33.455Z,3.73
2019-03-10T01:30:36.648Z,3.43
2019-03-10T01:32:42.172Z,2.33
2019-03-10T01:34:51.133Z,2.90
2019-03-10T01:36:54.500Z,3.20
2019-03-10T01:38:58.627Z,2.87
2019-03-10T01:41:03.357Z,2.90
2019-03-10T01:43:07.048Z,3.63
2019-03-10T01:45:09.944Z,4.13
2019-03-10T01:47:13.583Z,3.30
2019-03-10T01:49:16.914Z,4.17
2019-03-10T01:51:19.810Z,3.97
2019-03-10T01:53:25.793Z,3.27
2019-03-10T01:55:27.167Z,3.20
2019-03-10T01:57:30.055Z,4.23
2019-03-10T01:59:32.943Z,3.87
2019-03-10T02:01:36.748Z,3.37
2019-03-10T02:03:41.028Z,4.60
2019-03-10T02:05:43.959Z,3.60
2019-03-10T02:07:47.647Z,3.27
2019-03-10T02:09:51.334Z,3.20
2019-03-10T02:11:54.232Z,3.50
2019-03-10T02:13:57.934Z,4.10
2019-03-10T02:16:00.845Z,3.20
2019-03-10T02:18:03.785Z,2.87
2019-03-10T02:20:06.694Z,3.43
2019-03-10T02:22:09.665Z,3.10
2019-03-10T02:24:23.179Z,4.10
2019-03-10T02:26:17.081Z,2.93
2019-03-10T02:28:20.760Z,3.80
2019-03-10T02:30:24.478Z,4.00
2019-03-10T02:32:28.165Z,3.80
2019-03-10T02:34:32.141Z,3.67
2019-03-10T02:36:35.752Z,3.23
2019-03-10T02:38:38.765Z,3.10
2019-03-10T02:40:43.528Z,3.30
2019-03-10T02:42:45.525Z,3.30
2019-03-10T02:44:48.535Z,3.33
2019-03-10T02:46:52.234Z,4.23
2019-03-10T02:48:56.038Z,3.20
2019-03-10T02:50:59.708Z,3.60
2019-03-10T02:53:02.691Z,3.07
2019-03-10T02:55:05.597Z,3.47
2019-03-10T02:57:09.273Z,3.40
2019-03-10T02:59:12.487Z,3.63
2019-03-10T03:01:16.169Z,2.77
2019-03-10T03:03:19.131Z,3.20
2019-03-10T03:05:22.069Z,2.97
2019-03-10T03:07:24.979Z,2.83
2019-03-10T03:09:27.892Z,3.17
2019-03-10T03:11:30.817Z,2.80
2019-03-10T03:13:33.744Z,3.27
2019-03-10T03:15:36.697Z,2.90
2019-03-10T03:17:39.599Z,2.70
2019-03-10T03:19:42.524Z,3.40
2019-03-10T03:21:46.427Z,2.77
2019-03-10T03:23:50.094Z,2.70
2019-03-10T03:25:53.119Z,2.33
2019-03-10T03:27:56.314Z,2.90
2019-03-10T03:29:59.247Z,3.40
2019-03-10T03:32:02.191Z,2.90
2019-03-10T03:34:05.152Z,2.67
2019-03-10T03:36:11.694Z,2.70
2019-03-10T03:38:14.696Z,2.40
2019-03-10T03:40:18.600Z,2.80
2019-03-10T03:42:22.274Z,2.57
2019-03-10T03:44:25.310Z,3.47
2019-03-10T03:46:29.087Z,2.20
2019-03-10T03:48:32.754Z,2.87
2019-03-10T03:50:35.657Z,3.33
2019-03-10T03:52:38.857Z,2.97
2019-03-10T03:54:42.658Z,2.90
2019-03-10T03:56:46.333Z,2.83
2019-03-10T03:58:50.157Z,2.83
2019-03-10T04:00:56.791Z,3.10
2019-03-10T04:02:59.812Z,2.67
2019-03-10T04:05:03.621Z,2.27
2019-03-10T04:07:06.546Z,2.67
2019-03-10T04:09:09.458Z,2.97
2019-03-10T04:11:13.911Z,2.57
2019-03-10T04:13:16.826Z,3.20
2019-03-10T04:15:19.735Z,2.60
2019-03-10T04:17:22.670Z,3.50
2019-03-10T04:19:25.623Z,2.80
2019-03-10T04:21:29.305Z,3.37
2019-03-10T04:23:33.227Z,3.00
2019-03-10T04:25:36.899Z,2.90
2019-03-10T04:27:41.322Z,2.80
2019-03-10T04:29:45.030Z,3.07
2019-03-10T04:31:48.726Z,3.90
2019-03-10T04:33:52.417Z,3.00
2019-03-10T04:35:55.629Z,3.00
2019-03-10T04:37:59.295Z,2.87
2019-03-10T04:40:02.312Z,2.67
2019-03-10T04:42:06.217Z,2.70
2019-03-10T04:44:09.884Z,3.07
2019-03-10T04:46:12.900Z,3.53
2019-03-10T04:48:16.707Z,3.70
2019-03-10T04:50:20.941Z,2.77
2019-03-10T04:52:23.849Z,2.27
2019-03-10T04:54:30.749Z,2.70
2019-03-10T04:56:35.124Z,1.97
2019-03-10T04:58:38.070Z,2.40
2019-03-10T05:00:41.748Z,2.00
2019-03-10T05:02:45.442Z,2.10
2019-03-10T05:04:48.374Z,1.70
2019-03-10T05:06:51.292Z,2.20
2019-03-10T05:08:54.315Z,2.27
2019-03-10T05:10:59.561Z,1.97
2019-03-10T05:13:02.479Z,2.20
2019-03-10T05:15:05.473Z,2.15
2019-03-10T05:17:08.704Z,2.23
2019-03-10T05:19:12.377Z,2.30
2019-03-10T05:21:15.388Z,2.17
2019-03-10T05:23:36.322Z,2.10
2019-03-10T05:25:39.237Z,3.00
2019-03-10T05:27:42.155Z,2.50
2019-03-10T05:29:45.958Z,2.63
2019-03-10T05:31:49.646Z,1.50
2019-03-10T05:33:53.315Z,2.10
2019-03-10T05:35:56.443Z,1.30
2019-03-10T05:38:00.117Z,1.90
2019-03-10T05:40:03.026Z,2.00
2019-03-10T05:42:06.108Z,1.95
2019-03-10T05:44:09.786Z,2.03
2019-03-10T05:46:13.481Z,1.80
2019-03-10T05:48:16.413Z,1.90
2019-03-10T05:50:19.329Z,1.30
2019-03-10T05:52:22.241Z,1.70
2019-03-10T05:54:26.697Z,1.60
2019-03-10T05:56:29.614Z,1.50
2019-03-10T05:58:32.637Z,1.30
2019-03-10T06:00:42.685Z,1.20
2019-03-10T06:02:39.257Z,1.30
2019-03-10T06:04:42.165Z,1.00
2019-03-10T06:06:45.285Z,1.10
2019-03-10T06:08:48.958Z,1.07
2019-03-10T06:10:52.650Z,1.07
2019-03-10T06:12:55.593Z,0.90
2019-03-10T06:14:58.492Z,1.20
2019-03-10T06:17:01.405Z,1.80
2019-03-10T06:19:04.339Z,1.10
2019-03-10T06:21:08.183Z,1.10
2019-03-10T06:23:11.095Z,1.40
2019-03-10T06:25:15.530Z,1.13
2019-03-10T06:27:18.431Z,1.10
2019-03-10T06:29:21.346Z,1.07
2019-03-10T06:31:24.279Z,1.20
2019-03-10T06:33:27.204Z,1.17
2019-03-10T06:35:30.113Z,1.40
2019-03-10T06:37:33.922Z,1.43
2019-03-10T06:39:37.585Z,0.90
2019-03-10T06:41:40.498Z,1.27
2019-03-10T06:43:44.331Z,1.30
2019-03-10T06:45:47.278Z,1.13
2019-03-10T06:47:50.181Z,1.30
2019-03-10T06:49:53.258Z,0.80
2019-03-10T06:51:57.310Z,0.93
2019-03-10T06:54:00.226Z,0.83
2019-03-10T06:56:03.155Z,0.90
2019-03-10T06:58:06.071Z,0.93
2019-03-10T07:00:09.706Z,0.73
2019-03-10T07:02:12.794Z,0.90
2019-03-10T07:04:16.457Z,0.77
2019-03-10T07:06:19.474Z,0.70
2019-03-10T07:08:23.279Z,0.70
2019-03-10T07:10:26.944Z,0.80
2019-03-10T07:12:29.876Z,0.80
2019-03-10T07:14:33.574Z,0.80
2019-03-10T07:16:36.489Z,0.70
2019-03-10T07:18:39.395Z,0.83
2019-03-10T07:20:42.353Z,0.70
2019-03-10T07:22:45.269Z,0.70
2019-03-10T07:24:48.267Z,0.90
2019-03-10T07:26:52.071Z,0.77
2019-03-10T07:28:56.563Z,1.03
2019-03-10T07:31:00.209Z,0.80
2019-03-10T07:33:09.944Z,1.07
2019-03-10T07:35:12.846Z,0.80
2019-03-10T07:37:18.178Z,0.90
2019-03-10T07:39:21.240Z,0.90
2019-03-10T07:41:38.044Z,1.00
2019-03-10T07:43:51.674Z,0.93
2019-03-10T07:46:10.633Z,0.80
2019-03-10T07:48:29.281Z,1.30
2019-03-10T07:50:35.375Z,1.00
2019-03-10T07:52:44.258Z,1.07
2019-03-10T07:55:05.698Z,0.97
2019-03-10T07:57:21.253Z,1.10
2019-03-10T07:59:30.994Z,0.90
2019-03-10T08:01:49.567Z,1.10
2019-03-10T08:04:03.330Z,0.80
2019-03-10T08:06:12.018Z,0.83
2019-03-10T08:08:15.840Z,0.93
2019-03-10T08:10:21.608Z,1.00
2019-03-10T08:12:29.318Z,0.90
2019-03-10T08:14:37.829Z,0.70
2019-03-10T08:16:42.641Z,0.80
2019-03-10T08:18:45.575Z,0.80
2019-03-10T08:20:54.173Z,0.90
2019-03-10T08:23:01.458Z,0.73
2019-03-10T08:25:20.055Z,0.70
2019-03-10T08:27:23.429Z,1.10
2019-03-10T08:29:28.074Z,1.10
2019-03-10T08:31:36.610Z,0.87
2019-03-10T08:33:56.317Z,0.73
2019-03-10T08:36:04.648Z,0.60
2019-03-10T08:38:08.480Z,0.80
2019-03-10T08:40:14.216Z,0.60
2019-03-10T08:42:31.998Z,0.60
2019-03-10T08:44:50.549Z,0.60
2019-03-10T08:47:09.237Z,0.83
2019-03-10T08:49:14.806Z,1.17
2019-03-10T08:51:27.702Z,0.60
2019-03-10T08:53:31.212Z,0.70
2019-03-10T08:55:34.691Z,0.80
2019-03-10T08:57:40.105Z,0.80
2019-03-10T09:00:03.960Z,0.60
2019-03-10T09:02:21.322Z,0.83
2019-03-10T09:04:30.023Z,0.60
2019-03-10T09:06:34.802Z,0.73
2019-03-10T09:08:41.303Z,0.80
2019-03-10T09:10:45.974Z,0.70
2019-03-10T09:12:48.961Z,0.50
2019-03-10T09:15:10.738Z,0.93
2019-03-10T09:17:14.518Z,0.60
2019-03-10T09:19:20.804Z,0.60
2019-03-10T09:21:39.366Z,0.60
2019-03-10T09:23:58.925Z,0.60
2019-03-10T09:26:15.617Z,0.70
2019-03-10T09:28:19.372Z,0.80
2019-03-10T09:30:28.049Z,0.50
2019-03-10T09:32:37.573Z,0.57
2019-03-10T09:34:43.230Z,0.80
2019-03-10T09:36:49.699Z,1.33
2019-03-10T09:39:08.318Z,0.83
2019-03-10T09:41:18.586Z,0.60
2019-03-10T09:43:27.084Z,1.10
2019-03-10T09:45:31.909Z,0.50
2019-03-10T09:47:51.589Z,0.93
2019-03-10T09:50:01.009Z,1.07
2019-03-10T09:52:08.693Z,0.70
2019-03-10T09:54:13.538Z,0.60
2019-03-10T09:56:36.937Z,0.60
2019-03-10T09:58:45.429Z,0.70
2019-03-10T10:00:50.685Z,0.60
2019-03-10T10:03:07.318Z,0.80
2019-03-10T10:05:12.929Z,0.60
2019-03-10T10:07:18.849Z,0.60
2019-03-10T10:09:25.338Z,0.57
2019-03-10T10:11:29.080Z,0.50
2019-03-10T10:13:33.439Z,0.50
2019-03-10T10:15:38.134Z,0.50
2019-03-10T10:17:41.957Z,0.40
2019-03-10T10:20:03.354Z,0.53
2019-03-10T10:22:10.810Z,0.50
2019-03-10T10:24:15.549Z,0.50
2019-03-10T10:26:18.567Z,0.60
2019-03-10T10:28:22.801Z,0.70
2019-03-10T10:30:40.713Z,0.50
2019-03-10T10:32:47.035Z,0.70
2019-03-10T10:34:56.713Z,0.40
2019-03-10T10:37:18.217Z,0.40
2019-03-10T10:39:40.102Z,0.40
2019-03-10T10:41:59.833Z,0.50
2019-03-10T10:44:03.554Z,0.50
2019-03-10T10:46:09.406Z,0.60
2019-03-10T10:48:19.925Z,0.40
2019-03-10T10:50:33.556Z,0.60
2019-03-10T10:52:37.234Z,0.50
2019-03-10T10:54:55.131Z,0.43
2019-03-10T10:57:01.811Z,0.50
2019-03-10T10:59:19.609Z,0.60
2019-03-10T11:01:29.882Z,0.60
2019-03-10T11:03:35.685Z,0.50
2019-03-10T11:05:44.461Z,0.53
2019-03-10T11:07:59.094Z,0.65
2019-03-10T11:10:21.119Z,0.67
2019-03-10T11:12:26.967Z,0.50
2019-03-10T11:14:30.424Z,0.60
2019-03-10T11:16:39.125Z,0.90
2019-03-10T11:18:42.507Z,0.70
2019-03-10T11:20:49.138Z,0.60
2019-03-10T11:23:04.637Z,0.83
2019-03-10T11:25:10.422Z,0.50
2019-03-10T11:27:14.166Z,0.57
2019-03-10T11:29:20.288Z,0.50
2019-03-10T11:31:26.134Z,0.53
2019-03-10T11:33:31.765Z,0.68
2019-03-10T11:35:40.368Z,0.97
2019-03-10T11:37:45.821Z,0.60
2019-03-10T11:39:49.145Z,0.77
2019-03-10T11:42:06.975Z,0.70
2019-03-10T11:44:09.980Z,0.43
2019-03-10T11:46:20.461Z,0.60
2019-03-10T11:48:29.154Z,0.50
2019-03-10T11:50:33.710Z,0.40
2019-03-10T11:52:36.666Z,0.50
2019-03-10T11:54:46.029Z,0.50
2019-03-10T11:57:05.859Z,1.07
2019-03-10T11:59:09.642Z,0.80
2019-03-10T12:01:31.373Z,0.80
2019-03-10T12:03:45.005Z,0.80
2019-03-10T12:05:50.333Z,0.50
2019-03-10T12:07:57.078Z,1.03
2019-03-10T12:10:00.004Z,0.80
2019-03-10T12:12:03.041Z,0.47
2019-03-10T12:14:05.962Z,0.70
2019-03-10T12:16:08.966Z,1.00
2019-03-10T12:18:12.925Z,0.70
2019-03-10T12:20:15.854Z,0.87
2019-03-10T12:22:19.665Z,0.50
2019-03-10T12:24:22.678Z,0.60
2019-03-10T12:26:25.600Z,0.77
2019-03-10T12:28:28.809Z,0.60
2019-03-10T12:30:32.481Z,0.83
2019-03-10T12:32:35.387Z,0.70
2019-03-10T12:34:39.089Z,0.90
2019-03-10T12:36:42.900Z,0.60
2019-03-10T12:38:45.801Z,0.60
2019-03-10T12:40:49.799Z,0.80
2019-03-10T12:42:54.400Z,0.63
2019-03-10T12:44:57.313Z,0.77
2019-03-10T12:47:00.238Z,1.47
2019-03-10T12:49:03.177Z,1.00
2019-03-10T12:51:07.713Z,0.90
2019-03-10T12:53:10.613Z,1.00
2019-03-10T12:55:13.549Z,0.93
2019-03-10T12:57:16.458Z,1.03
2019-03-10T12:59:19.394Z,0.80
2019-03-10T13:01:23.404Z,0.90
2019-03-10T13:03:27.733Z,0.60
2019-03-10T13:05:30.682Z,1.10
2019-03-10T13:07:34.452Z,1.17
2019-03-10T13:09:37.538Z,0.70
2019-03-10T13:11:40.691Z,1.10
2019-03-10T13:13:43.788Z,0.70
2019-03-10T13:15:46.685Z,0.80
2019-03-10T13:17:49.601Z,0.90
2019-03-10T13:19:53.545Z,0.63
2019-03-10T13:21:56.451Z,1.20
2019-03-10T13:23:59.383Z,0.73
2019-03-10T13:26:03.086Z,1.10
2019-03-10T13:28:06.761Z,1.00
2019-03-10T13:30:11.386Z,1.07
2019-03-10T13:32:14.419Z,0.60
2019-03-10T13:34:17.354Z,0.70
2019-03-10T13:36:20.277Z,1.20
2019-03-10T13:38:23.957Z,1.03
2019-03-10T13:40:26.972Z,0.93
2019-03-10T13:42:29.949Z,0.90
2019-03-10T13:44:32.885Z,1.87
2019-03-10T13:46:35.813Z,1.10
2019-03-10T13:48:38.753Z,0.87
2019-03-10T13:50:42.469Z,1.20
2019-03-10T13:52:46.140Z,1.97
2019-03-10T13:54:49.355Z,1.03
2019-03-10T13:56:53.041Z,1.43
2019-03-10T13:58:56.713Z,1.73
2019-03-10T14:00:59.653Z,1.73
2019-03-10T14:03:02.575Z,1.70
2019-03-10T14:05:05.509Z,1.00
2019-03-10T14:07:08.462Z,1.77
2019-03-10T14:09:12.157Z,1.40
2019-03-10T14:11:15.165Z,2.00
2019-03-10T14:13:18.167Z,1.67
2019-03-10T14:15:21.091Z,1.57
2019-03-10T14:17:24.010Z,1.40
2019-03-10T14:19:27.918Z,1.37
2019-03-10T14:21:32.429Z,1.90
2019-03-10T14:23:35.300Z,2.27
2019-03-10T14:25:39.224Z,1.50
2019-03-10T14:27:42.927Z,1.77
2019-03-10T14:29:45.849Z,1.20
2019-03-10T14:31:48.997Z,1.27
2019-03-10T14:33:51.913Z,1.20
2019-03-10T14:35:54.822Z,2.10
2019-03-10T14:37:57.774Z,1.70
2019-03-10T14:40:00.666Z,1.57
2019-03-10T14:42:03.649Z,1.20
2019-03-10T14:44:06.605Z,1.40
2019-03-10T14:46:09.527Z,1.80
2019-03-10T14:48:12.439Z,1.67
2019-03-10T14:50:15.466Z,1.57
2019-03-10T14:52:18.411Z,1.10
2019-03-10T14:54:21.393Z,1.50
2019-03-10T14:56:25.057Z,1.43
2019-03-10T14:58:27.990Z,1.30
2019-03-10T15:00:30.905Z,1.10
2019-03-10T15:02:33.820Z,1.30
2019-03-10T15:04:36.757Z,1.10
2019-03-10T15:06:39.657Z,1.73
2019-03-10T15:08:42.893Z,1.20
2019-03-10T15:10:45.875Z,1.20
2019-03-10T15:12:49.532Z,1.70
2019-03-10T15:14:52.487Z,1.53
2019-03-10T15:17:01.595Z,1.50
2019-03-10T15:18:58.421Z,0.87
2019-03-10T15:21:02.127Z,1.47
2019-03-10T15:23:05.799Z,1.60
2019-03-10T15:25:09.508Z,1.10
2019-03-10T15:27:23.001Z,1.50
2019-03-10T15:29:16.260Z,0.90
2019-03-10T15:31:19.948Z,1.03
2019-03-10T15:33:23.032Z,1.25
2019-03-10T15:35:25.955Z,1.20
2019-03-10T15:37:28.879Z,1.37
2019-03-10T15:39:32.453Z,1.17
2019-03-10T15:41:35.425Z,0.90
2019-03-10T15:43:39.720Z,1.20
2019-03-10T15:45:42.659Z,1.10
2019-03-10T15:47:45.579Z,1.23
2019-03-10T15:49:48.518Z,1.10
2019-03-10T15:51:52.029Z,0.93
2019-03-10T15:53:54.972Z,1.07
2019-03-10T15:55:58.690Z,0.90
2019-03-10T15:58:03.894Z,1.00
2019-03-10T16:00:05.342Z,1.13
2019-03-10T16:02:09.158Z,0.90
2019-03-10T16:04:14.888Z,1.00
2019-03-10T16:06:17.822Z,0.80
2019-03-10T16:08:20.871Z,1.23
2019-03-10T16:10:24.576Z,1.40
2019-03-10T16:12:28.372Z,1.40
2019-03-10T16:14:32.120Z,1.10
2019-03-10T16:16:35.029Z,1.17
2019-03-10T16:18:38.044Z,1.03
2019-03-10T16:20:40.989Z,1.10
2019-03-10T16:22:44.006Z,1.10
2019-03-10T16:24:47.661Z,1.10
2019-03-10T16:26:50.617Z,1.10
2019-03-10T16:28:53.537Z,1.00
2019-03-10T16:30:56.462Z,1.33
2019-03-10T16:32:59.409Z,0.70
2019-03-10T16:35:03.135Z,0.70
2019-03-10T16:37:06.933Z,1.20
2019-03-10T16:39:10.735Z,0.90
2019-03-10T16:41:14.421Z,0.90
2019-03-10T16:43:17.347Z,0.97
2019-03-10T16:45:22.082Z,1.12
2019-03-10T16:47:25.784Z,1.30
2019-03-10T16:49:28.713Z,0.97
2019-03-10T16:51:32.938Z,0.77
2019-03-10T16:53:36.021Z,1.57
2019-03-10T16:55:39.743Z,0.83
2019-03-10T16:57:42.656Z,0.77
2019-03-10T16:59:45.570Z,0.70
2019-03-10T17:01:48.669Z,0.63
2019-03-10T17:03:52.345Z,0.90
2019-03-10T17:05:55.251Z,0.80
2019-03-10T17:07:59.033Z,0.83
2019-03-10T17:10:01.954Z,0.70
2019-03-10T17:12:04.873Z,0.80
2019-03-10T17:14:08.308Z,0.70
2019-03-10T17:16:12.091Z,0.60
2019-03-10T17:18:15.770Z,1.40
2019-03-10T17:20:19.577Z,0.90
2019-03-10T17:22:22.597Z,0.80
2019-03-10T17:24:26.265Z,0.70
2019-03-10T17:26:29.264Z,0.73
2019-03-10T17:28:32.951Z,0.77
2019-03-10T17:30:36.050Z,0.83
2019-03-10T17:32:41.325Z,0.50
2019-03-10T17:34:44.225Z,0.60
2019-03-10T17:36:47.266Z,0.90
2019-03-10T17:38:50.932Z,0.67
2019-03-10T17:40:53.949Z,0.50
2019-03-10T17:42:57.751Z,0.70
2019-03-10T17:45:01.486Z,0.50
2019-03-10T17:47:05.121Z,0.53
2019-03-10T17:49:08.679Z,0.60
2019-03-10T17:51:11.593Z,0.60
2019-03-10T17:53:14.624Z,0.50
2019-03-10T17:55:18.415Z,0.70
2019-03-10T17:57:21.339Z,0.87
2019-03-10T17:59:24.253Z,0.70
2019-03-10T18:01:27.352Z,0.60
2019-03-10T18:03:30.257Z,0.50
2019-03-10T18:05:34.226Z,0.60
2019-03-10T18:07:37.439Z,0.50
2019-03-10T18:09:41.149Z,0.50
2019-03-10T18:11:44.225Z,0.90
2019-03-10T18:13:48.028Z,0.50
2019-03-10T18:15:51.705Z,1.00
2019-03-10T18:17:54.655Z,0.70
2019-03-10T18:19:57.693Z,0.60
2019-03-10T18:22:00.881Z,0.87
2019-03-10T18:24:04.684Z,0.60
2019-03-10T18:26:08.383Z,0.67
2019-03-10T18:28:12.448Z,0.87
2019-03-10T18:30:17.070Z,1.00
2019-03-10T18:32:21.070Z,1.00
2019-03-10T18:34:24.012Z,0.90
2019-03-10T18:36:27.398Z,0.90
2019-03-10T18:38:31.313Z,1.30
2019-03-10T18:40:34.753Z,1.37
2019-03-10T18:42:37.793Z,0.93
2019-03-10T18:44:40.925Z,0.80
2019-03-10T18:46:43.909Z,0.50
2019-03-10T18:48:47.243Z,0.70
2019-03-10T18:50:50.368Z,0.50
2019-03-10T18:52:53.426Z,0.70
2019-03-10T18:54:56.333Z,0.43
2019-03-10T18:56:59.553Z,0.97
2019-03-10T18:59:02.669Z,0.50
2019-03-10T19:01:06.683Z,0.70
2019-03-10T19:03:09.632Z,0.70
2019-03-10T19:05:12.589Z,0.60
2019-03-10T19:07:15.936Z,0.50
2019-03-10T19:09:18.874Z,0.60
2019-03-10T19:11:21.877Z,0.57
2019-03-10T19:13:25.538Z,0.60
2019-03-10T19:15:28.447Z,0.70
2019-03-10T19:17:31.376Z,0.70
2019-03-10T19:19:34.294Z,0.50
2019-03-10T19:21:37.324Z,0.70
2019-03-10T19:23:41.025Z,0.70
2019-03-10T19:25:44.725Z,0.53
2019-03-10T19:27:48.389Z,0.57
2019-03-10T19:29:51.332Z,0.57
2019-03-10T19:31:54.259Z,0.50
2019-03-10T19:33:57.274Z,0.53
2019-03-10T19:36:01.085Z,0.63
2019-03-10T19:38:04.670Z,0.75
2019-03-10T19:40:06.985Z,0.60
2019-03-10T19:42:10.126Z,0.93
2019-03-10T19:44:13.058Z,0.80
2019-03-10T19:46:16.090Z,0.93
2019-03-10T19:48:20.221Z,0.60
2019-03-10T19:50:28.019Z,0.57
2019-03-10T19:52:31.080Z,0.60
2019-03-10T19:54:35.206Z,0.77
2019-03-10T19:56:38.121Z,0.50
2019-03-10T19:58:41.033Z,0.50
2019-03-10T20:00:44.742Z,0.50
2019-03-10T20:02:48.418Z,1.00
2019-03-10T20:04:51.439Z,0.60
2019-03-10T20:06:55.665Z,0.77
2019-03-10T20:09:01.376Z,0.50
2019-03-10T20:11:02.596Z,0.68
2019-03-10T20:13:05.540Z,0.50
2019-03-10T20:15:08.638Z,0.90
2019-03-10T20:17:11.796Z,0.60
2019-03-10T20:19:14.996Z,0.60
2019-03-10T20:21:18.062Z,0.67
2019-03-10T20:23:21.047Z,0.70
2019-03-10T20:25:24.770Z,0.63
2019-03-10T20:27:27.742Z,0.73
2019-03-10T20:29:30.657Z,0.60
2019-03-10T20:31:33.708Z,0.80
2019-03-10T20:33:36.628Z,0.73
2019-03-10T20:35:39.553Z,0.73
2019-03-10T20:37:43.569Z,0.50
2019-03-10T20:39:47.579Z,0.60
2019-03-10T20:41:50.781Z,0.60
2019-03-10T20:43:53.953Z,0.53
2019-03-10T20:45:57.640Z,0.50
2019-03-10T20:48:01.344Z,0.60
2019-03-10T20:50:05.498Z,0.60
2019-03-10T20:52:08.539Z,0.50
2019-03-10T20:54:12.454Z,0.60
2019-03-10T20:56:16.664Z,0.40
2019-03-10T20:58:19.901Z,0.50
2019-03-10T21:00:22.938Z,0.60
2019-03-10T21:02:26.025Z,0.60
2019-03-10T21:04:29.734Z,0.57
2019-03-10T21:06:32.638Z,0.73
2019-03-10T21:08:35.584Z,0.60
2019-03-10T21:10:39.253Z,0.60
2019-03-10T21:12:42.914Z,0.90
2019-03-10T21:14:45.150Z,0.40
2019-03-10T21:16:48.859Z,0.55
2019-03-10T21:18:52.530Z,0.60
2019-03-10T21:20:58.226Z,0.70
2019-03-10T21:23:01.150Z,0.80
2019-03-10T21:25:04.161Z,0.67
2019-03-10T21:27:07.826Z,0.60
2019-03-10T21:29:10.767Z,0.65
2019-03-10T21:31:13.889Z,0.52
2019-03-10T21:33:16.912Z,0.75
2019-03-10T21:35:20.684Z,0.60
2019-03-10T21:37:23.597Z,0.80
2019-03-10T21:39:34.476Z,0.70
2019-03-10T21:41:30.222Z,0.70
2019-03-10T21:43:33.122Z,0.60
2019-03-10T21:45:36.140Z,0.90
2019-03-10T21:47:39.895Z,0.70
2019-03-10T21:49:42.790Z,0.65
2019-03-10T21:51:45.809Z,0.60
2019-03-10T21:53:49.493Z,0.70
2019-03-10T21:55:53.170Z,0.50
2019-03-10T21:57:56.069Z,0.70
2019-03-10T21:59:59.889Z,0.68
2019-03-10T22:02:03.694Z,0.60
2019-03-10T22:04:07.353Z,0.60
2019-03-10T22:06:10.376Z,0.90
2019-03-10T22:08:14.042Z,0.82
2019-03-10T22:10:27.184Z,1.20
2019-03-10T22:12:21.580Z,0.50
2019-03-10T22:14:25.290Z,0.60
2019-03-10T22:16:28.213Z,0.85
2019-03-10T22:18:31.269Z,0.57
2019-03-10T22:20:34.181Z,0.60
2019-03-10T22:22:48.372Z,0.73
2019-03-10T22:24:41.832Z,0.50
2019-03-10T22:26:45.495Z,0.90
2019-03-10T22:28:48.510Z,1.03
2019-03-10T22:30:51.421Z,1.20
2019-03-10T22:32:54.330Z,1.00
2019-03-10T22:34:57.243Z,1.25
2019-03-10T22:37:01.005Z,1.08
2019-03-10T22:39:03.922Z,0.93
2019-03-10T22:41:06.832Z,1.10
2019-03-10T22:43:10.318Z,1.23
2019-03-10T22:45:16.874Z,1.17
2019-03-10T22:47:20.549Z,1.33
2019-03-10T22:49:23.513Z,1.00
2019-03-10T22:51:26.409Z,1.27
2019-03-10T22:53:29.320Z,1.62
2019-03-10T22:55:33.009Z,0.80
2019-03-10T22:57:37.430Z,1.30
2019-03-10T22:59:40.432Z,1.37
2019-03-10T23:01:44.232Z,1.55
2019-03-10T23:03:47.901Z,1.00
2019-03-10T23:05:50.929Z,1.90
2019-03-10T23:07:54.626Z,1.03
2019-03-10T23:09:57.529Z,1.83
2019-03-10T23:12:00.438Z,1.60
2019-03-10T23:14:03.405Z,1.10
2019-03-10T23:16:07.132Z,1.65
2019-03-10T23:18:10.253Z,1.58
2019-03-10T23:20:13.963Z,1.80
2019-03-10T23:22:16.873Z,1.30
2019-03-10T23:24:19.813Z,1.52
2019-03-10T23:26:22.731Z,1.40
2019-03-10T23:28:25.633Z,1.20
2019-03-10T23:30:28.658Z,1.40
2019-03-10T23:32:32.359Z,1.12
2019-03-10T23:34:36.026Z,1.05
2019-03-10T23:36:38.957Z,1.02
2019-03-10T23:38:41.877Z,1.95
2019-03-10T23:40:44.822Z,1.70
2019-03-10T23:42:47.720Z,1.55
2019-03-10T23:44:50.633Z,2.22
2019-03-10T23:46:53.580Z,1.73
2019-03-10T23:48:56.487Z,1.10
2019-03-10T23:50:59.413Z,1.50
2019-03-10T23:53:03.212Z,1.45
2019-03-10T23:55:06.878Z,1.45
2019-03-10T23:57:09.839Z,1.73
2019-03-10T23:59:12.753Z,1.20
